Nahodka, Russia
Current Conditions -  °F | °C
As of 4:00 AM on Thursday 29 Jan 2015 (Local Time) from UHWW Reporting Station
Clear Clear  
Wind Chill: -8°   Ceiling: Unl
Heat Index:   Visibility: 6mi
Dew Point: -11°   Wind: 4mph
Humidity: 56%   Direction: NA
Pressure: 30.45"   Gusts: NA
Location:  42.83°N, 132.89°E
Report Text: UHWW 281800Z VRB02MPS 9999 SKC M17/M24 Q1031 NOSIG RMKQFE772/1030 57CLRD60
Loading
Personal Weather Stations






























Interactive Weather Map New forecast layout! Learn more

10-Day Weather Forecast

Advertisements
Track Severe Weather on mobile